»·PEaware :: N45XS CYCD-KYKM

N45XS :: CYCD-KYKM

FLIGHT INFORMATION

Flight Status: Arrived
Operator: Privately registered:
United States
More flights under this callsign
Pilot: Maurice C. (12314)
Aircraft: BEECH AIRCRAFT BARON
(BE58)
More flights by this aircraft type
Origin: CYCD Nanaimo
Canada
Destination: KYKM Yakima Air Term/Mcallister
United States
More flights between these airports :: More routes between these airports
Route: +
File this flight plan on PilotEdge
Remarks:
Altitude:
(Current/Filed)
11,500ft
Speed:
(Current/Filed)
160kts
Departed: 15-Aug-17 08:41 AM
Arrived: 15-Aug-17 10:02 AM
Distance/Time
Traveled:
200nm/1:21
Distance/Time
To Go:
Arrived

Flight Plot

Page will automatically refresh every two minutes.

Flight plan parsing failed; only flown route is shown


Map Options




Map Legend


Flown Route
Filed Route
Departure Airport
Arrival Airport
Navaid (VOR, NDB)
Fix

Horizontal Profiles

Position Reports

Time Latitude Longitude Heading Altitude Ground
Speed
15-Aug-17 08:33 49.052643 -123.873764 231 89ft 0kts
15-Aug-17 08:34 49.052643 -123.873764 231 89ft 0kts
15-Aug-17 08:35 49.052643 -123.873764 231 89ft 0kts
15-Aug-17 08:36 49.052643 -123.873764 231 89ft 0kts
15-Aug-17 08:37 49.052643 -123.873764 231 89ft 0kts
15-Aug-17 08:38 49.052643 -123.873764 231 89ft 0kts
15-Aug-17 08:39 49.052643 -123.873764 231 89ft 0kts
15-Aug-17 08:40 49.052643 -123.873764 231 89ft 0kts
15-Aug-17 08:41 49.052643 -123.873764 231 89ft 0kts
15-Aug-17 08:42 49.052868 -123.872819 37 89ft 0kts
15-Aug-17 08:43 49.047296 -123.872866 183 89ft 16kts
15-Aug-17 08:44 49.048636 -123.870345 0 89ft 61kts
15-Aug-17 08:45 49.079828 -123.862555 65 1134ft 137kts
15-Aug-17 08:46 49.078600 -123.800354 96 2321ft 164kts
15-Aug-17 08:47 49.072473 -123.727169 96 2957ft 179kts
15-Aug-17 08:48 49.066176 -123.652418 96 3732ft 175kts
15-Aug-17 08:49 49.059912 -123.579020 96 4528ft 174kts
15-Aug-17 08:50 49.053350 -123.506641 94 5326ft 171kts
15-Aug-17 08:51 49.045615 -123.435624 97 6128ft 168kts
15-Aug-17 08:52 49.038534 -123.366298 94 6927ft 163kts
15-Aug-17 08:53 49.034243 -123.299667 92 7706ft 160kts
15-Aug-17 08:55 49.030214 -123.232442 92 8501ft 159kts
15-Aug-17 08:56 49.026123 -123.165424 92 9299ft 158kts
15-Aug-17 08:57 49.022101 -123.098926 91 10094ft 157kts
15-Aug-17 08:58 49.018793 -123.032844 89 10890ft 155kts
15-Aug-17 08:59 49.016853 -122.966799 88 11504ft 164kts
15-Aug-17 09:00 49.016771 -122.892098 87 11505ft 183kts
15-Aug-17 09:01 49.017394 -122.812972 87 11503ft 188kts
15-Aug-17 09:02 49.018123 -122.733014 87 11504ft 189kts
15-Aug-17 09:03 49.018864 -122.652898 87 11506ft 189kts
15-Aug-17 09:04 49.019600 -122.572769 87 11505ft 189kts
15-Aug-17 09:05 49.016037 -122.492941 96 11503ft 190kts
15-Aug-17 09:06 49.002810 -122.414904 104 11502ft 190kts
15-Aug-17 09:07 48.988522 -122.338007 104 11500ft 191kts
15-Aug-17 09:08 48.974062 -122.260798 104 11496ft 192kts
15-Aug-17 09:09 48.956358 -122.185705 118 11482ft 193kts
15-Aug-17 09:10 48.919334 -122.127387 149 11481ft 193kts
15-Aug-17 09:11 48.873654 -122.091848 155 11480ft 193kts
15-Aug-17 09:12 48.825291 -122.056802 155 11480ft 192kts
15-Aug-17 09:13 48.777029 -122.021832 155 11477ft 193kts
15-Aug-17 09:14 48.728653 -121.986751 155 11466ft 193kts
15-Aug-17 09:15 48.680276 -121.951613 155 11455ft 193kts
15-Aug-17 09:16 48.631883 -121.916411 153 11446ft 193kts
15-Aug-17 09:17 48.583339 -121.882384 155 11467ft 192kts
15-Aug-17 09:18 48.539675 -121.851670 155 11483ft 192kts
15-Aug-17 09:19 48.491201 -121.817404 155 11496ft 193kts
15-Aug-17 09:20 48.442338 -121.782795 155 11500ft 195kts
15-Aug-17 09:21 48.393072 -121.747907 155 11500ft 196kts
15-Aug-17 09:22 48.343933 -121.713121 155 11500ft 196kts
15-Aug-17 09:23 48.295170 -121.678611 155 11500ft 196kts
15-Aug-17 09:24 48.245907 -121.643754 155 11500ft 196kts
15-Aug-17 09:25 48.196676 -121.608929 155 11501ft 196kts
15-Aug-17 09:26 48.147457 -121.574143 155 11501ft 196kts
15-Aug-17 09:27 48.098066 -121.539289 154 11501ft 196kts
15-Aug-17 09:28 48.048886 -121.504594 154 11501ft 196kts
15-Aug-17 09:29 47.999719 -121.469915 154 11501ft 196kts
15-Aug-17 09:30 47.950332 -121.435090 154 11501ft 196kts
15-Aug-17 09:31 47.901113 -121.400392 154 11501ft 196kts
15-Aug-17 09:32 47.852402 -121.366060 154 11499ft 196kts
15-Aug-17 09:33 47.805949 -121.333306 155 11494ft 196kts
15-Aug-17 09:34 47.758060 -121.299543 155 11482ft 196kts
15-Aug-17 09:35 47.708749 -121.264859 155 11466ft 196kts
15-Aug-17 09:36 47.658942 -121.231375 162 11451ft 196kts
15-Aug-17 09:37 47.605585 -121.221535 190 11448ft 193kts
15-Aug-17 09:38 47.552277 -121.231655 189 11450ft 193kts
15-Aug-17 09:39 47.498706 -121.234426 177 11451ft 195kts
15-Aug-17 09:40 47.444657 -121.228372 177 11450ft 195kts
15-Aug-17 09:41 47.390570 -121.222312 177 11406ft 197kts
15-Aug-17 09:42 47.334054 -121.216269 177 10930ft 208kts
15-Aug-17 09:43 47.279457 -121.188548 152 10440ft 211kts
15-Aug-17 09:44 47.230679 -121.141005 143 9946ft 210kts
15-Aug-17 09:45 47.187887 -121.083862 135 9464ft 201kts
15-Aug-17 09:46 47.150661 -121.029854 135 9440ft 178kts
15-Aug-17 09:47 47.116744 -120.980182 134 9443ft 167kts
15-Aug-17 09:48 47.084204 -120.932270 134 9444ft 164kts
15-Aug-17 09:49 47.050216 -120.882286 134 9004ft 179kts
15-Aug-17 09:50 47.016550 -120.827927 129 8507ft 178kts
15-Aug-17 09:51 46.985374 -120.772564 128 8006ft 174kts
15-Aug-17 09:52 46.954764 -120.718600 128 7509ft 173kts
15-Aug-17 09:53 46.923536 -120.664032 128 7021ft 175kts
15-Aug-17 09:54 46.886407 -120.623547 160 6539ft 177kts
15-Aug-17 09:55 46.839035 -120.609316 168 5992ft 167kts
15-Aug-17 09:56 46.798230 -120.597920 168 5421ft 125kts
15-Aug-17 09:57 46.769725 -120.589579 169 4934ft 117kts
15-Aug-17 09:58 46.735144 -120.580131 173 3398ft 119kts
15-Aug-17 09:59 46.701160 -120.573918 172 2478ft 132kts
15-Aug-17 10:00 46.664427 -120.567999 175 2225ft 143kts
15-Aug-17 10:01 46.629280 -120.558068 171 2017ft 111kts
15-Aug-17 10:02 46.598806 -120.550843 170 2012ft 114kts
15-Aug-17 10:03 46.580421 -120.512329 111 2338ft 142kts
15-Aug-17 10:04 46.559025 -120.486950 228 1846ft 103kts
15-Aug-17 10:04 46.562360 -120.518496 287 1322ft 97kts
15-Aug-17 10:05 46.568066 -120.540190 49 1096ft 16kts
15-Aug-17 10:06 46.568291 -120.539620 57 1096ft 0kts
15-Aug-17 10:07 46.570016 -120.542436 333 1096ft 12kts
15-Aug-17 10:08 46.570235 -120.542771 274 1096ft 0kts
15-Aug-17 10:09 46.570235 -120.542771 274 1096ft 0kts

Navigation Log

Ident Type
Flight plan parsing failed, navigation log unavailable